createdAt,value
2023-03-29T00:00:49.642Z,82.69
2023-03-29T00:03:17.249Z,82.58
2023-03-29T00:05:44.735Z,82.40
2023-03-29T00:08:14.211Z,82.61
2023-03-29T00:10:41.887Z,82.51
2023-03-29T00:13:08.722Z,82.55
2023-03-29T00:15:35.466Z,82.52
2023-03-29T00:18:01.827Z,82.35
2023-03-29T00:20:28.780Z,82.49
2023-03-29T00:22:55.262Z,82.33
2023-03-29T00:25:21.588Z,82.42
2023-03-29T00:27:47.957Z,82.48
2023-03-29T00:30:15.167Z,82.30
2023-03-29T00:32:41.928Z,82.50
2023-03-29T00:35:09.046Z,82.49
2023-03-29T00:37:35.630Z,82.58
2023-03-29T00:40:02.271Z,82.46
2023-03-29T00:42:28.744Z,82.35
2023-03-29T00:45:21.211Z,82.70
2023-03-29T00:48:02.479Z,82.59
2023-03-29T00:50:48.282Z,82.49
2023-03-29T00:53:23.281Z,82.57
2023-03-29T00:56:02.927Z,82.55
2023-03-29T00:58:43.750Z,82.46
2023-03-29T01:01:16.616Z,82.31
2023-03-29T01:03:50.173Z,82.32
2023-03-29T01:06:21.640Z,81.96
2023-03-29T01:08:52.595Z,81.87
2023-03-29T01:11:25.135Z,81.75
2023-03-29T01:14:15.578Z,81.43
2023-03-29T01:16:42.343Z,81.45
2023-03-29T01:19:13.642Z,81.17
2023-03-29T01:21:46.026Z,80.97
2023-03-29T01:24:30.440Z,80.78
2023-03-29T01:27:15.611Z,80.69
2023-03-29T01:29:49.954Z,80.66
2023-03-29T01:32:19.574Z,80.29
2023-03-29T01:34:58.505Z,80.18
2023-03-29T01:37:30.413Z,79.95
2023-03-29T01:39:56.813Z,79.64
2023-03-29T01:43:04.357Z,79.49
2023-03-29T01:45:37.827Z,79.48
2023-03-29T01:48:14.579Z,79.45
2023-03-29T01:50:54.076Z,79.59
2023-03-29T01:53:24.609Z,79.49
2023-03-29T01:56:04.423Z,79.08
2023-03-29T01:58:35.713Z,78.88
2023-03-29T02:01:09.728Z,78.78
2023-03-29T02:03:42.415Z,78.76
2023-03-29T02:06:12.692Z,78.86
2023-03-29T02:08:41.429Z,78.89
2023-03-29T02:11:08.955Z,78.92
2023-03-29T02:13:36.245Z,78.85
2023-03-29T02:16:12.379Z,79.15
2023-03-29T02:18:42.402Z,79.10
2023-03-29T02:21:33.613Z,79.02
2023-03-29T02:24:03.255Z,79.26
2023-03-29T02:26:29.640Z,79.31
2023-03-29T02:28:56.131Z,79.41
2023-03-29T02:31:29.613Z,79.69
2023-03-29T02:34:08.732Z,79.77
2023-03-29T02:36:49.755Z,79.89
2023-03-29T02:39:18.092Z,79.85
2023-03-29T02:41:49.212Z,80.17
2023-03-29T02:44:20.342Z,80.23
2023-03-29T02:46:50.687Z,80.30
2023-03-29T02:49:17.079Z,80.32
2023-03-29T02:51:45.035Z,80.33
2023-03-29T02:54:17.742Z,80.01
2023-03-29T02:56:47.362Z,80.27
2023-03-29T02:59:14.422Z,80.30
2023-03-29T03:01:42.710Z,80.43
2023-03-29T03:04:10.148Z,80.68
2023-03-29T03:06:37.764Z,80.52
2023-03-29T03:09:05.812Z,80.96
2023-03-29T03:11:33.051Z,80.84
2023-03-29T03:13:59.622Z,81.23
2023-03-29T03:16:26.329Z,81.37
2023-03-29T03:18:53.829Z,81.27
2023-03-29T03:21:21.002Z,81.50
2023-03-29T03:23:48.380Z,81.44
2023-03-29T03:26:16.274Z,81.78
2023-03-29T03:28:43.077Z,81.79
2023-03-29T03:31:09.471Z,81.94
2023-03-29T03:33:35.838Z,81.74
2023-03-29T03:36:06.209Z,81.91
2023-03-29T03:38:33.185Z,81.94
2023-03-29T03:41:01.190Z,81.80
2023-03-29T03:43:28.587Z,81.95
2023-03-29T03:45:55.641Z,81.79
2023-03-29T03:48:23.813Z,82.08
2023-03-29T03:50:55.375Z,82.03
2023-03-29T03:53:23.451Z,81.91
2023-03-29T03:55:51.167Z,82.15
2023-03-29T03:58:18.095Z,82.04
2023-03-29T04:00:47.139Z,82.04
2023-03-29T04:03:14.137Z,81.80
2023-03-29T04:05:42.639Z,82.00
2023-03-29T04:08:09.152Z,81.64
2023-03-29T04:10:35.583Z,81.74
2023-03-29T04:13:02.525Z,81.89
2023-03-29T04:15:29.352Z,81.64
2023-03-29T04:17:56.727Z,81.61
2023-03-29T04:20:24.160Z,81.71
2023-03-29T04:22:51.166Z,81.88
2023-03-29T04:25:17.944Z,81.61
2023-03-29T04:27:45.313Z,81.65
2023-03-29T04:30:12.950Z,81.47
2023-03-29T04:32:39.334Z,81.52
2023-03-29T04:35:06.527Z,81.34
2023-03-29T04:37:33.122Z,81.57
2023-03-29T04:40:02.424Z,81.48
2023-03-29T04:42:29.296Z,81.72
2023-03-29T04:44:55.713Z,81.82
2023-03-29T04:47:22.122Z,81.76
2023-03-29T04:49:48.514Z,81.86
2023-03-29T04:52:14.824Z,81.63
2023-03-29T04:54:41.162Z,81.74
2023-03-29T04:57:08.602Z,81.62
2023-03-29T04:59:35.090Z,81.65
2023-03-29T05:02:03.035Z,81.76
2023-03-29T05:04:29.654Z,81.83
2023-03-29T05:06:57.046Z,81.57
2023-03-29T05:09:24.658Z,81.62
2023-03-29T05:11:51.441Z,81.62
2023-03-29T05:14:18.002Z,81.88
2023-03-29T05:16:44.515Z,81.78
2023-03-29T05:19:11.352Z,81.88
2023-03-29T05:21:38.463Z,81.97
2023-03-29T05:24:05.917Z,81.71
2023-03-29T05:26:32.244Z,81.92
2023-03-29T05:28:58.570Z,81.72
2023-03-29T05:31:24.996Z,81.76
2023-03-29T05:33:51.874Z,81.55
2023-03-29T05:36:19.219Z,81.63
2023-03-29T05:38:46.781Z,81.59
2023-03-29T05:41:14.546Z,81.52
2023-03-29T05:43:40.902Z,81.56
2023-03-29T05:46:07.633Z,81.42
2023-03-29T05:48:34.121Z,81.30
2023-03-29T05:51:00.651Z,81.06
2023-03-29T05:53:28.610Z,81.17
2023-03-29T05:55:56.680Z,81.11
2023-03-29T05:58:23.286Z,81.34
2023-03-29T06:00:50.023Z,81.38
2023-03-29T06:03:21.689Z,80.98
2023-03-29T06:05:49.984Z,81.19
2023-03-29T06:08:16.858Z,81.26
2023-03-29T06:10:43.709Z,81.19
2023-03-29T06:13:10.788Z,80.98
2023-03-29T06:15:37.427Z,80.92
2023-03-29T06:18:04.531Z,80.74
2023-03-29T06:20:30.988Z,80.63
2023-03-29T06:22:58.409Z,80.69
2023-03-29T06:25:24.932Z,80.97
2023-03-29T06:27:52.123Z,80.48
2023-03-29T06:30:19.256Z,80.64
2023-03-29T06:32:46.105Z,80.61
2023-03-29T06:35:12.457Z,80.57
2023-03-29T06:37:40.921Z,80.65
2023-03-29T06:40:09.338Z,80.23
2023-03-29T06:42:35.783Z,80.47
2023-03-29T06:45:02.554Z,80.71
2023-03-29T06:47:30.879Z,81.02
2023-03-29T06:49:57.329Z,81.60
2023-03-29T06:52:23.681Z,81.53
2023-03-29T06:54:50.483Z,81.75
2023-03-29T06:57:17.689Z,81.72
2023-03-29T06:59:44.191Z,82.20
2023-03-29T07:02:12.368Z,82.20
2023-03-29T07:04:41.620Z,82.50
2023-03-29T07:07:19.790Z,82.86
2023-03-29T07:09:53.921Z,82.84
2023-03-29T07:12:22.412Z,81.98
2023-03-29T07:14:48.806Z,80.01
2023-03-29T07:17:16.537Z,79.26
2023-03-29T07:19:43.423Z,79.65
2023-03-29T07:22:09.868Z,79.91
2023-03-29T07:24:36.174Z,80.51
2023-03-29T07:27:04.676Z,80.48
2023-03-29T07:29:32.002Z,80.97
2023-03-29T07:31:58.360Z,80.63
2023-03-29T07:34:24.801Z,80.37
2023-03-29T07:36:51.570Z,80.52
2023-03-29T07:39:17.912Z,80.27
2023-03-29T07:41:44.259Z,80.57
2023-03-29T07:44:10.570Z,80.68
2023-03-29T07:46:37.193Z,80.78
2023-03-29T07:49:04.089Z,80.30
2023-03-29T07:51:30.983Z,80.11
2023-03-29T07:53:57.299Z,79.72
2023-03-29T07:56:24.695Z,79.93
2023-03-29T07:58:51.583Z,80.14
2023-03-29T08:01:19.816Z,80.30
2023-03-29T08:03:46.461Z,80.13
2023-03-29T08:06:12.804Z,79.88
2023-03-29T08:08:39.155Z,79.60
2023-03-29T08:11:08.749Z,80.01
2023-03-29T08:13:35.253Z,79.67
2023-03-29T08:16:01.858Z,79.95
2023-03-29T08:18:28.255Z,80.12
2023-03-29T08:20:54.588Z,79.79
2023-03-29T08:23:21.101Z,80.00
2023-03-29T08:25:47.437Z,79.52
2023-03-29T08:28:14.850Z,79.64
2023-03-29T08:30:41.926Z,79.62
2023-03-29T08:33:08.771Z,79.90
2023-03-29T08:35:35.597Z,80.22
2023-03-29T08:38:01.908Z,79.38
2023-03-29T08:40:30.236Z,79.95
2023-03-29T08:43:18.780Z,79.37
2023-03-29T08:46:08.584Z,79.76
2023-03-29T08:48:43.992Z,79.23
2023-03-29T08:51:24.416Z,79.32
2023-03-29T08:53:56.421Z,79.73
2023-03-29T08:56:27.858Z,79.66
2023-03-29T08:58:55.895Z,79.72
2023-03-29T09:01:23.151Z,79.71
2023-03-29T09:03:53.773Z,79.56
2023-03-29T09:06:21.828Z,80.13
2023-03-29T09:08:50.772Z,80.04
2023-03-29T09:11:30.827Z,79.44
2023-03-29T09:14:25.012Z,79.43
2023-03-29T09:16:51.553Z,79.64
2023-03-29T09:19:44.078Z,79.73
2023-03-29T09:22:26.519Z,79.52
2023-03-29T09:25:05.720Z,79.76
2023-03-29T09:27:57.967Z,79.76
2023-03-29T09:30:30.668Z,79.58
2023-03-29T09:33:16.424Z,79.59
2023-03-29T09:35:57.349Z,79.91
2023-03-29T09:38:23.742Z,80.32
2023-03-29T09:40:53.901Z,80.46
2023-03-29T09:43:32.553Z,79.85
2023-03-29T09:46:11.016Z,79.60
2023-03-29T09:48:41.154Z,79.85
2023-03-29T09:51:09.016Z,80.20
2023-03-29T09:53:35.352Z,79.04
2023-03-29T09:56:02.197Z,78.75
2023-03-29T09:58:31.629Z,78.98
2023-03-29T10:01:00.724Z,79.41
2023-03-29T10:03:30.166Z,80.48
2023-03-29T10:05:59.962Z,80.34
2023-03-29T10:08:28.975Z,79.86
2023-03-29T10:10:59.909Z,79.78
2023-03-29T10:13:32.819Z,79.63
2023-03-29T10:16:07.299Z,79.77
2023-03-29T10:18:40.609Z,78.97
2023-03-29T10:21:07.436Z,78.69
2023-03-29T10:23:36.853Z,77.44
2023-03-29T10:26:07.723Z,78.31
2023-03-29T10:28:36.583Z,76.87
2023-03-29T10:31:06.009Z,77.29
2023-03-29T10:33:34.667Z,77.31
2023-03-29T10:36:04.901Z,77.73
2023-03-29T10:38:31.915Z,77.71
2023-03-29T10:41:12.581Z,77.72
2023-03-29T10:43:43.649Z,78.34
2023-03-29T10:46:19.922Z,78.69
2023-03-29T10:48:49.283Z,79.88
2023-03-29T10:51:18.254Z,80.03
2023-03-29T10:53:44.693Z,81.10
2023-03-29T10:56:19.896Z,79.80
2023-03-29T10:59:14.465Z,80.13
2023-03-29T11:02:02.536Z,80.47
2023-03-29T11:04:52.332Z,80.54
2023-03-29T11:07:33.024Z,79.87
2023-03-29T11:10:04.549Z,81.68
2023-03-29T11:12:39.611Z,81.91
2023-03-29T11:15:40.622Z,82.08
2023-03-29T11:18:26.023Z,82.64
2023-03-29T11:21:26.507Z,82.76
2023-03-29T11:23:58.521Z,82.64
2023-03-29T11:26:30.574Z,82.93
2023-03-29T11:29:05.678Z,83.26
2023-03-29T11:31:51.366Z,82.85
2023-03-29T11:34:46.919Z,82.43
2023-03-29T11:37:19.337Z,82.93
2023-03-29T11:39:54.414Z,81.82
2023-03-29T11:42:26.684Z,81.69
2023-03-29T11:44:56.004Z,82.31
2023-03-29T11:47:26.637Z,81.83
2023-03-29T11:49:57.858Z,81.04
2023-03-29T11:52:37.813Z,81.56
2023-03-29T11:55:28.439Z,80.91
2023-03-29T11:58:17.464Z,80.75
2023-03-29T12:00:46.221Z,80.33
2023-03-29T12:03:38.441Z,80.22
2023-03-29T12:06:07.625Z,80.14
2023-03-29T12:09:02.314Z,80.81
2023-03-29T12:11:46.198Z,80.73
2023-03-29T12:14:27.348Z,80.80
2023-03-29T12:17:01.978Z,81.22
2023-03-29T12:19:39.759Z,80.65
2023-03-29T12:22:08.915Z,80.23
2023-03-29T12:24:41.133Z,80.17
2023-03-29T12:27:22.771Z,80.46
2023-03-29T12:30:07.666Z,80.38
2023-03-29T12:32:37.088Z,81.32
2023-03-29T12:35:34.918Z,80.57
2023-03-29T12:38:14.025Z,81.27
2023-03-29T12:40:43.962Z,81.54
2023-03-29T12:43:32.934Z,81.89
2023-03-29T12:46:08.854Z,82.32
2023-03-29T12:48:45.147Z,82.33
2023-03-29T12:51:25.387Z,82.47
2023-03-29T12:54:07.373Z,82.85
2023-03-29T12:56:56.079Z,82.97
2023-03-29T12:59:43.310Z,83.09
2023-03-29T13:02:13.801Z,83.04
2023-03-29T13:04:47.006Z,83.33
2023-03-29T13:07:22.490Z,82.75
2023-03-29T13:10:08.121Z,82.69
2023-03-29T13:12:34.391Z,82.46
2023-03-29T13:15:25.153Z,82.50
2023-03-29T13:18:16.095Z,82.37
2023-03-29T13:20:51.061Z,82.61
2023-03-29T13:23:44.244Z,82.39
2023-03-29T13:26:32.059Z,81.68
2023-03-29T13:29:28.129Z,81.88
2023-03-29T13:32:27.140Z,81.90
2023-03-29T13:35:06.188Z,81.86
2023-03-29T13:37:53.263Z,82.41
2023-03-29T13:40:44.226Z,81.94
2023-03-29T13:43:21.731Z,81.39
2023-03-29T13:46:04.272Z,81.50
2023-03-29T13:48:46.745Z,80.98
2023-03-29T13:51:13.044Z,80.80
2023-03-29T13:53:54.735Z,80.38
2023-03-29T13:56:34.137Z,80.54
2023-03-29T13:59:15.467Z,80.97
2023-03-29T14:01:48.438Z,80.50
2023-03-29T14:04:21.195Z,80.66
2023-03-29T14:06:53.045Z,80.93
2023-03-29T14:09:30.717Z,80.89
2023-03-29T14:12:00.081Z,80.42
2023-03-29T14:14:30.190Z,80.62
2023-03-29T14:16:57.232Z,79.60
2023-03-29T14:19:36.032Z,79.79
2023-03-29T14:22:08.242Z,80.36
2023-03-29T14:24:41.371Z,79.95
2023-03-29T14:27:10.100Z,79.53
2023-03-29T14:29:36.613Z,80.59
2023-03-29T14:32:18.064Z,80.21
2023-03-29T14:34:48.165Z,79.70
2023-03-29T14:37:18.792Z,80.20
2023-03-29T14:39:45.693Z,79.49
2023-03-29T14:42:17.419Z,79.03
2023-03-29T14:44:44.854Z,78.75
2023-03-29T14:47:17.792Z,78.86
2023-03-29T14:49:45.014Z,77.99
2023-03-29T14:52:13.209Z,77.94
2023-03-29T14:54:42.895Z,77.61
2023-03-29T14:57:16.416Z,77.61
2023-03-29T14:59:43.299Z,77.55
2023-03-29T15:02:29.498Z,77.92
2023-03-29T15:05:07.556Z,77.53
2023-03-29T15:07:36.720Z,77.26
2023-03-29T15:10:06.237Z,76.46
2023-03-29T15:12:33.616Z,76.54
2023-03-29T15:15:00.940Z,76.98
2023-03-29T15:17:50.242Z,76.18
2023-03-29T15:20:41.467Z,76.89
2023-03-29T15:23:16.861Z,75.47
2023-03-29T15:25:49.084Z,76.02
2023-03-29T15:28:31.067Z,76.50
2023-03-29T15:31:12.679Z,75.62
2023-03-29T15:33:40.968Z,76.44
2023-03-29T15:36:12.998Z,75.72
2023-03-29T15:38:44.769Z,74.72
2023-03-29T15:41:13.679Z,75.05
2023-03-29T15:43:41.192Z,75.28
2023-03-29T15:46:08.123Z,75.51
2023-03-29T15:48:34.783Z,74.98
2023-03-29T15:51:04.816Z,74.75
2023-03-29T15:53:32.940Z,75.42
2023-03-29T15:56:02.509Z,75.21
2023-03-29T15:58:32.326Z,75.34
2023-03-29T16:01:11.002Z,75.38
2023-03-29T16:03:38.642Z,75.12
2023-03-29T16:06:06.030Z,75.44
2023-03-29T16:08:32.421Z,75.89
2023-03-29T16:10:58.826Z,75.54
2023-03-29T16:13:25.144Z,75.35
2023-03-29T16:15:51.450Z,75.00
2023-03-29T16:18:17.815Z,75.33
2023-03-29T16:20:44.177Z,75.33
2023-03-29T16:23:11.455Z,75.99
2023-03-29T16:25:39.810Z,76.12
2023-03-29T16:28:08.000Z,76.47
2023-03-29T16:30:35.925Z,76.86
2023-03-29T16:33:06.195Z,77.16
2023-03-29T16:35:35.039Z,77.13
2023-03-29T16:38:01.448Z,76.92
2023-03-29T16:40:27.929Z,76.55
2023-03-29T16:42:54.423Z,77.28
2023-03-29T16:45:20.808Z,77.32
2023-03-29T16:47:47.468Z,77.40
2023-03-29T16:50:19.661Z,77.69
2023-03-29T16:52:48.399Z,77.96
2023-03-29T16:55:18.736Z,77.99
2023-03-29T16:57:46.655Z,78.08
2023-03-29T17:00:15.911Z,78.42
2023-03-29T17:02:46.066Z,78.71
2023-03-29T17:05:12.702Z,78.49
2023-03-29T17:07:39.661Z,78.38
2023-03-29T17:10:08.095Z,79.19
2023-03-29T17:12:34.762Z,79.23
2023-03-29T17:15:01.098Z,79.31
2023-03-29T17:17:27.596Z,79.56
2023-03-29T17:19:56.085Z,79.47
2023-03-29T17:22:23.592Z,79.81
2023-03-29T17:24:50.118Z,79.90
2023-03-29T17:27:16.618Z,79.75
2023-03-29T17:29:42.990Z,79.90
2023-03-29T17:32:09.303Z,80.11
2023-03-29T17:34:35.684Z,80.08
2023-03-29T17:37:03.522Z,80.69
2023-03-29T17:39:30.646Z,80.50
2023-03-29T17:41:56.991Z,80.93
2023-03-29T17:44:23.352Z,80.81
2023-03-29T17:46:49.753Z,81.02
2023-03-29T17:49:16.113Z,80.91
2023-03-29T17:51:42.546Z,80.82
2023-03-29T17:54:08.901Z,80.81
2023-03-29T17:56:35.445Z,80.90
2023-03-29T17:59:02.017Z,81.24
2023-03-29T18:01:28.499Z,80.96
2023-03-29T18:03:54.917Z,81.16
2023-03-29T18:06:21.348Z,81.30
2023-03-29T18:08:47.890Z,81.00
2023-03-29T18:11:22.264Z,81.58
2023-03-29T18:13:50.439Z,81.59
2023-03-29T18:16:17.357Z,81.69
2023-03-29T18:18:43.812Z,81.59
2023-03-29T18:21:10.977Z,81.99
2023-03-29T18:23:39.807Z,81.87
2023-03-29T18:26:07.409Z,82.08
2023-03-29T18:28:35.014Z,82.26
2023-03-29T18:31:01.520Z,82.40
2023-03-29T18:33:30.120Z,82.38
2023-03-29T18:35:56.498Z,82.43
2023-03-29T18:38:22.916Z,82.66
2023-03-29T18:40:50.544Z,82.94
2023-03-29T18:43:16.887Z,83.33
2023-03-29T18:45:44.537Z,83.17
2023-03-29T18:48:11.081Z,83.20
2023-03-29T18:50:38.690Z,83.33
2023-03-29T18:53:05.070Z,83.28
2023-03-29T18:55:31.460Z,83.25
2023-03-29T18:57:57.770Z,83.80
2023-03-29T19:00:24.318Z,83.86
2023-03-29T19:02:50.759Z,84.22
2023-03-29T19:05:17.552Z,83.88
2023-03-29T19:07:44.046Z,83.74
2023-03-29T19:10:11.990Z,84.08
2023-03-29T19:12:38.479Z,83.78
2023-03-29T19:15:05.419Z,83.99
2023-03-29T19:17:31.996Z,84.30
2023-03-29T19:19:58.462Z,84.65
2023-03-29T19:22:24.870Z,84.58
2023-03-29T19:24:51.281Z,84.73
2023-03-29T19:27:18.353Z,85.04
2023-03-29T19:29:44.667Z,85.29
2023-03-29T19:32:11.169Z,85.70
2023-03-29T19:34:37.509Z,85.81
2023-03-29T19:37:03.902Z,85.91
2023-03-29T19:39:30.404Z,86.16
2023-03-29T19:41:56.752Z,86.53
2023-03-29T19:44:26.014Z,86.45
2023-03-29T19:46:52.443Z,86.73
2023-03-29T19:49:18.867Z,86.81
2023-03-29T19:51:45.464Z,86.71
2023-03-29T19:54:14.593Z,86.96
2023-03-29T19:56:42.581Z,87.12
2023-03-29T19:59:11.099Z,87.48
2023-03-29T20:01:39.461Z,87.43
2023-03-29T20:04:06.216Z,87.68
2023-03-29T20:06:32.616Z,87.48
2023-03-29T20:08:59.278Z,87.84
2023-03-29T20:11:25.994Z,88.02
2023-03-29T20:13:52.368Z,88.06
2023-03-29T20:16:19.393Z,88.53
2023-03-29T20:18:46.305Z,88.53
2023-03-29T20:21:16.217Z,88.74
2023-03-29T20:23:42.756Z,88.77
2023-03-29T20:26:09.100Z,89.03
2023-03-29T20:28:37.438Z,89.04
2023-03-29T20:31:06.350Z,88.78
2023-03-29T20:33:33.086Z,89.27
2023-03-29T20:35:59.640Z,89.28
2023-03-29T20:38:26.149Z,89.62
2023-03-29T20:40:53.466Z,89.54
2023-03-29T20:43:20.092Z,89.52
2023-03-29T20:45:53.295Z,89.54
2023-03-29T20:48:22.894Z,89.60
2023-03-29T20:50:49.813Z,89.47
2023-03-29T20:53:16.349Z,89.76
2023-03-29T20:55:42.699Z,89.47
2023-03-29T20:58:09.660Z,89.33
2023-03-29T21:00:37.537Z,89.62
2023-03-29T21:03:04.107Z,89.26
2023-03-29T21:05:33.092Z,89.04
2023-03-29T21:07:59.915Z,89.31
2023-03-29T21:10:27.359Z,88.88
2023-03-29T21:13:00.551Z,89.03
2023-03-29T21:15:29.273Z,89.20
2023-03-29T21:17:55.806Z,88.78
2023-03-29T21:20:22.303Z,88.89
2023-03-29T21:22:48.606Z,89.06
2023-03-29T21:25:15.752Z,88.59
2023-03-29T21:27:42.147Z,88.61
2023-03-29T21:30:09.256Z,88.79
2023-03-29T21:32:36.028Z,88.73
2023-03-29T21:35:02.528Z,88.73
2023-03-29T21:37:28.932Z,88.58
2023-03-29T21:39:55.242Z,88.43
2023-03-29T21:42:21.609Z,88.21
2023-03-29T21:44:47.942Z,88.32
2023-03-29T21:47:14.286Z,88.17
2023-03-29T21:49:40.778Z,88.28
2023-03-29T21:52:07.387Z,88.47
2023-03-29T21:54:33.871Z,88.02
2023-03-29T21:57:00.363Z,88.16
2023-03-29T21:59:27.790Z,87.98
2023-03-29T22:01:54.131Z,88.18
2023-03-29T22:04:35.326Z,88.35
2023-03-29T22:07:03.397Z,88.03
2023-03-29T22:09:29.932Z,88.22
2023-03-29T22:11:56.788Z,88.37
2023-03-29T22:14:23.118Z,88.24
2023-03-29T22:16:49.496Z,88.31
2023-03-29T22:19:15.866Z,88.15
2023-03-29T22:21:42.389Z,88.12
2023-03-29T22:24:08.802Z,87.86
2023-03-29T22:26:35.453Z,87.75
2023-03-29T22:29:01.900Z,87.42
2023-03-29T22:31:29.611Z,87.70
2023-03-29T22:33:56.150Z,87.59
2023-03-29T22:36:28.789Z,87.51
2023-03-29T22:38:55.973Z,87.00
2023-03-29T22:41:24.816Z,87.14
2023-03-29T22:43:52.547Z,86.75
2023-03-29T22:46:19.365Z,86.48
2023-03-29T22:48:46.522Z,86.39
2023-03-29T22:51:13.136Z,86.15
2023-03-29T22:53:39.631Z,85.88
2023-03-29T22:56:07.468Z,85.68
2023-03-29T22:58:33.842Z,85.15
2023-03-29T23:01:00.999Z,85.08
2023-03-29T23:03:27.376Z,84.94
2023-03-29T23:05:56.244Z,84.78
2023-03-29T23:08:23.473Z,84.57
2023-03-29T23:10:50.500Z,84.25
2023-03-29T23:13:23.877Z,84.10
2023-03-29T23:15:50.794Z,84.11
2023-03-29T23:18:20.884Z,83.70
2023-03-29T23:20:48.562Z,83.63
2023-03-29T23:23:16.039Z,83.17
2023-03-29T23:25:47.432Z,83.34
2023-03-29T23:28:16.749Z,83.08
2023-03-29T23:30:43.292Z,82.82
2023-03-29T23:33:10.340Z,82.71
2023-03-29T23:35:37.548Z,82.31
2023-03-29T23:38:05.428Z,82.47
2023-03-29T23:40:33.055Z,82.38
2023-03-29T23:42:59.690Z,81.95
2023-03-29T23:45:29.298Z,81.95
2023-03-29T23:47:56.963Z,81.71
2023-03-29T23:50:23.549Z,81.69
2023-03-29T23:52:51.319Z,81.27
2023-03-29T23:55:17.791Z,81.30
2023-03-29T23:57:44.149Z,81.06
